createdAt,value
2022-11-06T00:00:57.338Z,988.7
2022-11-06T00:02:58.439Z,988.6
2022-11-06T00:04:59.987Z,988.7
2022-11-06T00:07:01.046Z,988.6
2022-11-06T00:09:02.939Z,988.6
2022-11-06T00:11:04.424Z,988.6
2022-11-06T00:13:05.840Z,988.7
2022-11-06T00:15:07.080Z,988.7
2022-11-06T00:17:09.020Z,988.7
2022-11-06T00:19:10.401Z,988.6
2022-11-06T00:21:12.242Z,988.7
2022-11-06T00:23:13.654Z,988.7
2022-11-06T00:25:15.555Z,988.6
2022-11-06T00:27:17.399Z,988.6
2022-11-06T00:29:19.011Z,988.5
2022-11-06T00:31:20.893Z,988.6
2022-11-06T00:33:22.400Z,988.6
2022-11-06T00:35:23.830Z,988.6
2022-11-06T00:37:25.742Z,988.6
2022-11-06T00:39:27.053Z,988.6
2022-11-06T00:41:28.509Z,988.7
2022-11-06T00:43:29.616Z,988.6
2022-11-06T00:45:31.023Z,988.7
2022-11-06T00:47:32.385Z,988.5
2022-11-06T00:49:33.930Z,988.6
2022-11-06T00:51:35.163Z,988.5
2022-11-06T00:53:36.386Z,988.6
2022-11-06T00:55:38.246Z,988.6
2022-11-06T00:57:39.271Z,988.6
2022-11-06T00:59:40.859Z,988.6
2022-11-06T01:01:42.782Z,988.6
2022-11-06T01:03:44.570Z,988.5
2022-11-06T01:05:45.556Z,988.6
2022-11-06T01:09:48.698Z,988.6
2022-11-06T01:12:12.158Z,988.6
2022-11-06T01:13:51.120Z,988.7
2022-11-06T01:15:52.516Z,988.5
2022-11-06T01:17:53.629Z,988.6
2022-11-06T01:19:55.585Z,988.4
2022-11-06T01:21:57.219Z,988.5
2022-11-06T01:25:59.334Z,988.5
2022-11-06T01:30:02.286Z,988.6
2022-11-06T01:32:04.088Z,988.5
2022-11-06T01:34:05.393Z,988.5
2022-11-06T01:36:07.260Z,988.4
2022-11-06T01:38:09.017Z,988.4
2022-11-06T01:42:12.153Z,988.4
2022-11-06T01:44:13.862Z,988.5
2022-11-06T01:46:15.794Z,988.5
2022-11-06T01:48:17.141Z,988.4
2022-11-06T01:50:18.506Z,988.4
2022-11-06T01:52:20.394Z,988.4
2022-11-06T01:54:21.696Z,988.4
2022-11-06T01:56:23.309Z,988.5
2022-11-06T01:58:25.201Z,988.3
2022-11-06T02:00:26.702Z,988.3
2022-11-06T02:02:28.508Z,988.3
2022-11-06T02:04:29.583Z,988.2
2022-11-06T02:06:30.957Z,988.2
2022-11-06T02:08:32.224Z,988.2
2022-11-06T02:10:33.919Z,988.1
2022-11-06T02:12:35.564Z,988.2
2022-11-06T02:14:37.303Z,988.1
2022-11-06T02:16:38.917Z,988
2022-11-06T02:18:40.240Z,988.1
2022-11-06T02:20:41.276Z,988
2022-11-06T02:24:43.862Z,988
2022-11-06T02:26:44.915Z,987.9
2022-11-06T02:28:46.896Z,988
2022-11-06T02:30:48.174Z,987.9
2022-11-06T02:34:51.031Z,988
2022-11-06T02:36:52.155Z,987.8
2022-11-06T02:38:53.836Z,987.8
2022-11-06T02:40:54.899Z,987.8
2022-11-06T02:42:56.723Z,987.7
2022-11-06T02:44:57.760Z,987.7
2022-11-06T02:46:59.162Z,987.7
2022-11-06T02:49:00.717Z,987.8
2022-11-06T02:51:02.290Z,987.8
2022-11-06T02:53:03.718Z,987.8
2022-11-06T02:55:05.672Z,987.8
2022-11-06T02:57:06.795Z,987.7
2022-11-06T02:59:08.043Z,987.7
2022-11-06T03:01:09.258Z,987.8
2022-11-06T03:03:11.045Z,987.7
2022-11-06T03:05:12.113Z,987.7
2022-11-06T03:07:13.554Z,987.7
2022-11-06T03:09:14.997Z,987.7
2022-11-06T03:11:16.578Z,987.7
2022-11-06T03:13:18.473Z,987.6
2022-11-06T03:15:19.635Z,987.7
2022-11-06T03:17:20.920Z,987.6
2022-11-06T03:19:21.991Z,987.6
2022-11-06T03:21:23.466Z,987.6
2022-11-06T03:23:25.178Z,987.6
2022-11-06T03:25:26.907Z,987.7
2022-11-06T03:27:29.006Z,987.6
2022-11-06T03:29:30.937Z,987.6
2022-11-06T03:31:32.497Z,987.5
2022-11-06T03:33:34.479Z,987.5
2022-11-06T03:35:35.958Z,987.6
2022-11-06T03:39:39.403Z,987.7
2022-11-06T03:41:40.592Z,987.6
2022-11-06T03:43:41.899Z,987.7
2022-11-06T03:45:43.092Z,987.6
2022-11-06T03:47:44.733Z,987.6
2022-11-06T03:49:46.768Z,987.5
2022-11-06T03:51:48.425Z,987.5
2022-11-06T03:53:50.323Z,987.6
2022-11-06T03:55:51.579Z,987.6
2022-11-06T03:57:52.610Z,987.6
2022-11-06T03:59:53.676Z,987.5
2022-11-06T04:01:55.532Z,987.5
2022-11-06T04:03:56.915Z,987.6
2022-11-06T04:05:57.977Z,987.5
2022-11-06T04:07:59.939Z,987.6
2022-11-06T04:10:01.213Z,987.6
2022-11-06T04:12:02.404Z,987.6
2022-11-06T04:14:03.888Z,987.5
2022-11-06T04:16:05.834Z,987.5
2022-11-06T04:18:07.055Z,987.6
2022-11-06T04:22:09.893Z,987.6
2022-11-06T04:24:11.285Z,987.5
2022-11-06T04:26:12.474Z,987.4
2022-11-06T04:28:14.814Z,987.3
2022-11-06T04:30:15.709Z,987.3
2022-11-06T04:32:17.439Z,987.3
2022-11-06T04:34:19.261Z,987.5
2022-11-06T04:36:20.993Z,987.4
2022-11-06T04:38:22.348Z,987.4
2022-11-06T04:40:23.535Z,987.3
2022-11-06T04:42:24.613Z,987.4
2022-11-06T04:44:26.362Z,987.3
2022-11-06T04:46:28.166Z,987.2
2022-11-06T04:48:30.054Z,987.2
2022-11-06T04:50:31.575Z,987.1
2022-11-06T04:52:33.370Z,987.1
2022-11-06T04:54:34.686Z,987.1
2022-11-06T04:56:40.078Z,987.1
2022-11-06T04:58:38.317Z,987.1
2022-11-06T05:00:40.037Z,987.1
2022-11-06T05:02:41.868Z,987
2022-11-06T05:05:27.823Z,987
2022-11-06T05:07:29.739Z,987.1
2022-11-06T05:09:31.405Z,987
2022-11-06T05:11:32.554Z,987
2022-11-06T05:13:34.176Z,987.1
2022-11-06T05:15:36.172Z,987
2022-11-06T05:17:37.442Z,987
2022-11-06T05:19:39.426Z,986.9
2022-11-06T05:21:40.579Z,986.7
2022-11-06T05:25:43.670Z,986.7
2022-11-06T05:27:45.405Z,986.7
2022-11-06T05:29:47.350Z,986.8
2022-11-06T05:31:48.962Z,986.9
2022-11-06T05:33:50.085Z,986.9
2022-11-06T05:35:51.217Z,986.9
2022-11-06T05:37:52.392Z,986.9
2022-11-06T05:39:54.259Z,987
2022-11-06T05:41:56.254Z,987.1
2022-11-06T05:43:58.254Z,987.1
2022-11-06T05:45:59.822Z,987.2
2022-11-06T05:48:01.103Z,987.2
2022-11-06T05:50:02.954Z,987.2
2022-11-06T05:52:04.239Z,987.2
2022-11-06T05:54:06.209Z,987.2
2022-11-06T05:56:08.103Z,987.1
2022-11-06T05:58:09.586Z,987
2022-11-06T06:00:11.493Z,987.1
2022-11-06T06:02:13.550Z,987.2
2022-11-06T06:04:15.148Z,987.2
2022-11-06T06:08:18.346Z,987.3
2022-11-06T06:10:19.448Z,987.2
2022-11-06T06:12:20.838Z,987.2
2022-11-06T06:14:22.108Z,987.2
2022-11-06T06:18:25.298Z,987.1
2022-11-06T06:20:26.981Z,987.1
2022-11-06T06:22:28.458Z,987.1
2022-11-06T06:24:30.442Z,987.1
2022-11-06T06:26:31.672Z,987.1
2022-11-06T06:28:32.978Z,987.2
2022-11-06T06:30:34.593Z,987.1
2022-11-06T06:32:35.978Z,987
2022-11-06T06:34:37.419Z,986.9
2022-11-06T06:36:39.372Z,987
2022-11-06T06:38:41.141Z,987.1
2022-11-06T06:40:42.990Z,987.1
2022-11-06T06:42:44.777Z,987.1
2022-11-06T06:44:46.229Z,987.2
2022-11-06T06:46:47.928Z,987.2
2022-11-06T06:50:51.035Z,987
2022-11-06T06:52:52.517Z,987
2022-11-06T06:54:54.329Z,987.1
2022-11-06T06:56:55.675Z,987.2
2022-11-06T07:00:58.930Z,987
2022-11-06T07:03:00.110Z,986.9
2022-11-06T07:05:01.966Z,986.8
2022-11-06T07:07:03.027Z,986.7
2022-11-06T07:09:04.196Z,986.9
2022-11-06T07:11:05.687Z,986.9
2022-11-06T07:13:06.768Z,986.9
2022-11-06T07:15:08.288Z,986.9
2022-11-06T07:17:09.514Z,986.9
2022-11-06T07:19:10.681Z,986.8
2022-11-06T07:21:11.726Z,986.8
2022-11-06T07:23:12.906Z,986.8
2022-11-06T07:25:14.117Z,986.7
2022-11-06T07:27:15.869Z,986.6
2022-11-06T07:29:17.311Z,986.7
2022-11-06T07:31:18.990Z,986.5
2022-11-06T07:33:20.985Z,986.6
2022-11-06T07:35:22.379Z,986.6
2022-11-06T07:37:24.910Z,986.5
2022-11-06T07:39:26.037Z,986.4
2022-11-06T07:41:27.482Z,986.4
2022-11-06T07:43:28.715Z,986.5
2022-11-06T07:45:29.926Z,986.4
2022-11-06T07:47:40.571Z,986.4
2022-11-06T07:49:44.502Z,986.3
2022-11-06T07:51:34.926Z,986.2
2022-11-06T07:53:36.683Z,986.1
2022-11-06T07:55:41.910Z,986.2
2022-11-06T07:57:39.081Z,986.1
2022-11-06T07:59:40.822Z,986
2022-11-06T08:01:42.135Z,986
2022-11-06T08:03:43.330Z,986
2022-11-06T08:05:44.612Z,985.9
2022-11-06T08:07:47.269Z,985.9
2022-11-06T08:09:49.191Z,985.8
2022-11-06T08:11:51.404Z,985.8
2022-11-06T08:13:52.733Z,985.8
2022-11-06T08:15:53.765Z,985.8
2022-11-06T08:17:55.748Z,985.8
2022-11-06T08:19:56.810Z,985.9
2022-11-06T08:21:58.168Z,985.8
2022-11-06T08:23:58.970Z,985.8
2022-11-06T08:26:00.677Z,985.8
2022-11-06T08:28:02.020Z,985.8
2022-11-06T08:30:04.112Z,985.7
2022-11-06T08:32:05.158Z,985.6
2022-11-06T08:34:06.569Z,985.6
2022-11-06T08:36:07.515Z,985.6
2022-11-06T08:38:08.467Z,985.5
2022-11-06T08:40:09.796Z,985.5
2022-11-06T08:42:11.547Z,985.5
2022-11-06T08:44:13.384Z,985.5
2022-11-06T08:48:16.170Z,985.4
2022-11-06T08:50:17.582Z,985.5
2022-11-06T08:52:19.528Z,985.4
2022-11-06T08:54:20.462Z,985.2
2022-11-06T08:56:21.916Z,985.2
2022-11-06T08:58:23.647Z,985.1
2022-11-06T09:00:24.779Z,985.1
2022-11-06T09:02:26.340Z,985
2022-11-06T09:04:27.198Z,985.1
2022-11-06T09:06:28.854Z,985.1
2022-11-06T09:08:30.601Z,985.1
2022-11-06T09:10:31.819Z,985.1
2022-11-06T09:14:33.967Z,985
2022-11-06T09:16:35.081Z,985.1
2022-11-06T09:18:36.719Z,985.1
2022-11-06T09:25:01.699Z,985
2022-11-06T09:26:41.805Z,985.1
2022-11-06T09:30:44.454Z,985
2022-11-06T09:32:46.005Z,985.1
2022-11-06T09:34:47.441Z,985.1
2022-11-06T09:36:48.436Z,985.1
2022-11-06T09:38:50.173Z,985.1
2022-11-06T09:40:51.293Z,985.2
2022-11-06T09:42:52.446Z,985.1
2022-11-06T09:44:54.313Z,985.1
2022-11-06T09:46:56.134Z,985.2
2022-11-06T09:48:57.498Z,985.3
2022-11-06T09:50:59.160Z,985.3
2022-11-06T09:55:02.228Z,985.3
2022-11-06T09:57:03.421Z,985.1
2022-11-06T09:59:04.611Z,985.2
2022-11-06T10:01:06.368Z,985.1
2022-11-06T10:03:07.461Z,985
2022-11-06T10:05:09.205Z,985
2022-11-06T10:07:10.742Z,985
2022-11-06T10:09:12.237Z,985
2022-11-06T10:11:13.885Z,985
2022-11-06T10:13:17.629Z,984.9
2022-11-06T10:15:16.573Z,984.9
2022-11-06T10:17:18.281Z,984.9
2022-11-06T10:19:19.181Z,984.8
2022-11-06T10:21:20.880Z,984.7
2022-11-06T10:23:21.796Z,984.7
2022-11-06T10:25:22.959Z,984.7
2022-11-06T10:27:24.674Z,984.6
2022-11-06T10:29:26.327Z,984.6
2022-11-06T10:31:27.863Z,984.6
2022-11-06T10:33:28.947Z,984.6
2022-11-06T10:35:30.739Z,984.7
2022-11-06T10:37:31.805Z,984.7
2022-11-06T10:39:32.801Z,984.6
2022-11-06T10:41:34.475Z,984.5
2022-11-06T10:43:35.686Z,984.6
2022-11-06T10:45:37.175Z,984.5
2022-11-06T10:47:38.743Z,984.5
2022-11-06T10:49:39.885Z,984.5
2022-11-06T10:51:41.353Z,984.5
2022-11-06T10:53:43.082Z,984.5
2022-11-06T10:55:44.686Z,984.5
2022-11-06T10:57:46.527Z,984.3
2022-11-06T10:59:47.743Z,984.2
2022-11-06T11:01:49.283Z,984.2
2022-11-06T11:03:50.705Z,984.3
2022-11-06T11:05:51.752Z,984.2
2022-11-06T11:07:52.889Z,984.1
2022-11-06T11:11:55.831Z,984
2022-11-06T11:13:57.578Z,983.8
2022-11-06T11:15:59.296Z,983.9
2022-11-06T11:18:01.017Z,983.8
2022-11-06T11:20:02.249Z,983.7
2022-11-06T11:22:04.039Z,983.7
2022-11-06T11:24:05.804Z,983.7
2022-11-06T11:26:07.450Z,983.6
2022-11-06T11:28:09.081Z,983.5
2022-11-06T11:30:10.651Z,983.4
2022-11-06T11:32:12.462Z,983.3
2022-11-06T11:34:13.567Z,983.4
2022-11-06T11:36:14.712Z,983.5
2022-11-06T11:38:16.534Z,983.4
2022-11-06T11:40:17.314Z,983.4
2022-11-06T11:42:18.776Z,983.2
2022-11-06T11:44:20.646Z,983.3
2022-11-06T11:46:22.286Z,983.2
2022-11-06T11:48:24.022Z,983.3
2022-11-06T11:49:07.813Z,983.2
2022-11-06T11:53:10.814Z,983.2
2022-11-06T11:55:12.010Z,983.2
2022-11-06T11:57:13.734Z,983.2
2022-11-06T11:59:15.429Z,983.2
2022-11-06T12:01:16.854Z,983.2
2022-11-06T12:03:17.820Z,983.2
2022-11-06T12:05:18.762Z,983.2
2022-11-06T12:07:19.754Z,983.1
2022-11-06T12:09:20.965Z,983.2
2022-11-06T12:11:21.924Z,983.2
2022-11-06T12:15:24.107Z,983
2022-11-06T12:17:25.882Z,983.1
2022-11-06T12:19:27.042Z,982.9
2022-11-06T12:21:28.390Z,983
2022-11-06T12:23:29.573Z,982.9
2022-11-06T12:25:31.200Z,982.7
2022-11-06T12:27:32.784Z,982.8
2022-11-06T12:29:33.788Z,982.7
2022-11-06T12:31:34.807Z,982.7
2022-11-06T12:34:04.263Z,982.6
2022-11-06T12:35:38.190Z,982.6
2022-11-06T12:37:39.479Z,982.6
2022-11-06T12:39:40.901Z,982.6
2022-11-06T12:41:42.716Z,982.5
2022-11-06T12:43:44.435Z,982.5
2022-11-06T12:45:46.044Z,982.4
2022-11-06T12:47:47.507Z,982.6
2022-11-06T12:49:48.925Z,982.5
2022-11-06T12:51:50.799Z,982.5
2022-11-06T12:53:52.514Z,982.4
2022-11-06T12:55:53.830Z,982.3
2022-11-06T12:57:55.713Z,982.3
2022-11-06T12:59:57.615Z,982.3
2022-11-06T13:01:59.373Z,982.3
2022-11-06T13:04:00.306Z,982.2
2022-11-06T13:08:03.260Z,982.2
2022-11-06T13:10:04.650Z,982
2022-11-06T13:14:06.742Z,982.1
2022-11-06T13:16:08.283Z,982
2022-11-06T13:18:09.551Z,982
2022-11-06T13:20:11.090Z,981.9
2022-11-06T13:22:12.936Z,981.9
2022-11-06T13:24:14.781Z,981.9
2022-11-06T13:26:16.548Z,981.9
2022-11-06T13:28:17.988Z,981.8
2022-11-06T13:30:19.489Z,981.8
2022-11-06T13:32:21.271Z,981.7
2022-11-06T13:34:22.710Z,981.8
2022-11-06T13:36:24.613Z,981.8
2022-11-06T13:38:26.189Z,981.8
2022-11-06T13:40:27.183Z,981.8
2022-11-06T13:42:28.532Z,981.7
2022-11-06T13:44:29.800Z,981.6
2022-11-06T13:46:31.365Z,981.6
2022-11-06T13:48:36.935Z,981.5
2022-11-06T13:50:34.894Z,981.6
2022-11-06T13:52:36.565Z,981.6
2022-11-06T13:56:39.036Z,981.7
2022-11-06T13:58:40.280Z,981.6
2022-11-06T14:00:42.014Z,981.7
2022-11-06T14:02:43.256Z,981.7
2022-11-06T14:04:47.416Z,981.7
2022-11-06T14:06:46.004Z,981.7
2022-11-06T14:08:47.604Z,981.7
2022-11-06T14:12:49.764Z,981.8
2022-11-06T14:14:51.136Z,981.8
2022-11-06T14:16:52.477Z,981.7
2022-11-06T14:18:54.304Z,981.8
2022-11-06T14:20:55.477Z,981.7
2022-11-06T14:22:56.966Z,981.7
2022-11-06T14:25:01.414Z,981.8
2022-11-06T14:27:00.048Z,981.7
2022-11-06T14:29:01.886Z,981.8
2022-11-06T14:31:12.608Z,981.8
2022-11-06T14:33:04.811Z,981.8
2022-11-06T14:35:06.744Z,981.9
2022-11-06T14:37:08.659Z,981.8
2022-11-06T14:39:10.275Z,981.7
2022-11-06T14:41:11.424Z,981.7
2022-11-06T14:43:12.904Z,981.7
2022-11-06T14:45:13.992Z,981.9
2022-11-06T14:47:15.016Z,981.7
2022-11-06T14:49:16.065Z,981.7
2022-11-06T14:51:17.770Z,981.7
2022-11-06T14:55:21.040Z,981.8
2022-11-06T14:57:22.772Z,981.8
2022-11-06T14:59:24.373Z,981.8
2022-11-06T15:01:25.774Z,981.8
2022-11-06T15:03:27.281Z,981.8
2022-11-06T15:05:28.370Z,981.7
2022-11-06T15:07:44.908Z,981.7
2022-11-06T15:09:31.212Z,981.7
2022-11-06T15:11:32.666Z,981.6
2022-11-06T15:13:33.676Z,981.6
2022-11-06T15:15:34.726Z,981.6
2022-11-06T15:17:35.776Z,981.6
2022-11-06T15:21:39.402Z,981.7
2022-11-06T15:23:40.351Z,981.6
2022-11-06T15:25:41.426Z,981.5
2022-11-06T15:27:43.410Z,981.6
2022-11-06T15:31:46.283Z,981.6
2022-11-06T15:33:51.630Z,981.6
2022-11-06T15:35:49.641Z,981.5
2022-11-06T15:37:51.255Z,981.6
2022-11-06T15:39:56.135Z,981.5
2022-11-06T15:41:54.256Z,981.6
2022-11-06T15:43:55.590Z,981.6
2022-11-06T15:45:57.021Z,981.6
2022-11-06T15:47:58.359Z,981.4
2022-11-06T15:49:59.510Z,981.4
2022-11-06T15:52:00.955Z,981.4
2022-11-06T15:54:02.673Z,981.4
2022-11-06T15:56:03.595Z,981.5
2022-11-06T15:58:04.850Z,981.5
2022-11-06T16:00:06.686Z,981.6
2022-11-06T16:02:08.293Z,981.5
2022-11-06T16:04:14.613Z,981.4
2022-11-06T16:06:11.705Z,981.3
2022-11-06T16:08:13.269Z,981.2
2022-11-06T16:10:14.280Z,981.3
2022-11-06T16:12:16.117Z,981.1
2022-11-06T16:14:17.144Z,981.2
2022-11-06T16:16:19.084Z,981.2
2022-11-06T16:20:21.902Z,981.2
2022-11-06T16:22:23.330Z,981.3
2022-11-06T16:24:24.597Z,981.3
2022-11-06T16:26:26.534Z,981.3
2022-11-06T16:28:28.263Z,981.3
2022-11-06T16:30:29.291Z,981.3
2022-11-06T16:32:31.166Z,981.3
2022-11-06T16:34:32.855Z,981.3
2022-11-06T16:36:34.655Z,981.2
2022-11-06T16:38:41.376Z,981.1
2022-11-06T16:40:37.701Z,981
2022-11-06T16:42:39.347Z,981
2022-11-06T16:44:40.760Z,981
2022-11-06T16:46:42.253Z,981.1
2022-11-06T16:48:43.627Z,981.1
2022-11-06T16:50:45.031Z,981.2
2022-11-06T16:52:46.529Z,981.2
2022-11-06T16:54:47.582Z,981.2
2022-11-06T16:56:48.718Z,981.3
2022-11-06T16:58:50.471Z,981.1
2022-11-06T17:00:52.324Z,981.2
2022-11-06T17:02:53.407Z,981.2
2022-11-06T17:04:55.237Z,981.2
2022-11-06T17:06:56.549Z,981.1
2022-11-06T17:08:58.217Z,981.1
2022-11-06T17:10:59.337Z,981.1
2022-11-06T17:13:00.790Z,981.1
2022-11-06T17:15:02.588Z,981.1
2022-11-06T17:19:04.936Z,981.1
2022-11-06T17:21:06.605Z,981
2022-11-06T17:23:11.175Z,981.1
2022-11-06T17:25:09.448Z,981.1
2022-11-06T17:27:10.551Z,981.1
2022-11-06T17:29:11.746Z,981.2
2022-11-06T17:31:12.929Z,981
2022-11-06T17:33:14.879Z,981
2022-11-06T17:35:16.322Z,980.9
2022-11-06T17:37:17.907Z,980.9
2022-11-06T17:39:19.660Z,980.9
2022-11-06T17:41:21.516Z,980.8
2022-11-06T17:43:22.602Z,980.7
2022-11-06T17:45:24.126Z,980.9
2022-11-06T17:47:25.398Z,981.1
2022-11-06T17:49:27.040Z,981
2022-11-06T17:51:28.395Z,981
2022-11-06T17:53:30.321Z,980.9
2022-11-06T17:55:32.100Z,980.8
2022-11-06T17:57:33.157Z,980.8
2022-11-06T18:01:36.877Z,980.8
2022-11-06T18:03:37.880Z,980.7
2022-11-06T18:05:39.247Z,980.7
2022-11-06T18:07:40.757Z,980.9
2022-11-06T18:09:42.184Z,980.9
2022-11-06T18:11:43.439Z,980.9
2022-11-06T18:13:44.432Z,980.9
2022-11-06T18:15:45.744Z,981
2022-11-06T18:17:46.795Z,980.9
2022-11-06T18:19:47.906Z,980.8
2022-11-06T18:21:49.646Z,980.8
2022-11-06T18:23:51.306Z,980.8
2022-11-06T18:27:54.325Z,980.8
2022-11-06T18:29:55.543Z,980.8
2022-11-06T18:31:56.927Z,980.7
2022-11-06T18:33:58.093Z,980.6
2022-11-06T18:34:41.924Z,980.6
2022-11-06T18:38:44.633Z,980.5
2022-11-06T18:40:51.331Z,980.6
2022-11-06T18:42:48.133Z,980.7
2022-11-06T18:44:57.568Z,980.7
2022-11-06T18:46:50.868Z,980.6
2022-11-06T18:48:52.252Z,980.6
2022-11-06T18:50:53.561Z,980.6
2022-11-06T18:52:58.128Z,980.7
2022-11-06T18:55:00.534Z,980.7
2022-11-06T18:56:58.982Z,980.7
2022-11-06T18:58:59.899Z,980.9
2022-11-06T19:01:02.157Z,981.1
2022-11-06T19:03:02.576Z,981
2022-11-06T19:05:04.378Z,980.9
2022-11-06T19:07:05.906Z,980.8
2022-11-06T19:09:07.176Z,980.8
2022-11-06T19:11:08.448Z,980.8
2022-11-06T19:13:09.862Z,980.8
2022-11-06T19:15:11.289Z,980.8
2022-11-06T19:17:12.852Z,980.9
2022-11-06T19:21:15.333Z,981
2022-11-06T19:23:16.614Z,980.9
2022-11-06T19:27:19.375Z,980.9
2022-11-06T19:29:20.712Z,980.8
2022-11-06T19:31:22.317Z,980.8
2022-11-06T19:33:23.574Z,981
2022-11-06T19:35:24.756Z,980.9
2022-11-06T19:37:26.438Z,980.9
2022-11-06T19:39:28.360Z,980.9
2022-11-06T19:41:29.664Z,981
2022-11-06T19:43:30.784Z,981
2022-11-06T19:45:32.683Z,980.9
2022-11-06T19:47:34.077Z,981
2022-11-06T19:49:35.894Z,980.8
2022-11-06T19:51:37.246Z,980.9
2022-11-06T19:53:38.518Z,981
2022-11-06T19:55:39.506Z,981
2022-11-06T19:57:41.272Z,981
2022-11-06T19:59:42.654Z,981
2022-11-06T20:01:44.062Z,981
2022-11-06T20:03:45.697Z,981.1
2022-11-06T20:05:46.878Z,980.9
2022-11-06T20:07:48.537Z,981.1
2022-11-06T20:09:49.730Z,981.1
2022-11-06T20:11:51.312Z,981.1
2022-11-06T20:13:52.612Z,981.1
2022-11-06T20:15:53.752Z,981.3
2022-11-06T20:17:55.520Z,981.4
2022-11-06T20:19:56.995Z,981.2
2022-11-06T20:21:58.200Z,981.3
2022-11-06T20:26:01.431Z,981.3
2022-11-06T20:28:02.646Z,981.4
2022-11-06T20:30:04.199Z,981.5
2022-11-06T20:32:05.631Z,981.5
2022-11-06T20:34:06.724Z,981.5
2022-11-06T20:36:08.254Z,981.3
2022-11-06T20:38:09.579Z,981.3
2022-11-06T20:40:10.530Z,981.3
2022-11-06T20:42:11.852Z,981.4
2022-11-06T20:44:13.572Z,981.4
2022-11-06T20:46:14.902Z,981.4
2022-11-06T20:48:16.194Z,981.5
2022-11-06T20:52:19.036Z,981.5
2022-11-06T20:54:20.639Z,981.5
2022-11-06T20:56:22.042Z,981.5
2022-11-06T20:58:23.657Z,981.5
2022-11-06T21:00:25.215Z,981.5
2022-11-06T21:02:27.005Z,981.6
2022-11-06T21:04:28.262Z,981.5
2022-11-06T21:06:29.680Z,981.5
2022-11-06T21:08:30.714Z,981.6
2022-11-06T21:10:31.845Z,981.6
2022-11-06T21:12:33.164Z,981.6
2022-11-06T21:14:34.208Z,981.5
2022-11-06T21:16:35.555Z,981.6
2022-11-06T21:18:36.911Z,981.6
2022-11-06T21:20:38.232Z,981.6
2022-11-06T21:22:39.644Z,981.5
2022-11-06T21:24:40.829Z,981.6
2022-11-06T21:26:41.774Z,981.6
2022-11-06T21:28:43.009Z,981.6
2022-11-06T21:30:44.790Z,981.6
2022-11-06T21:32:46.170Z,981.5
2022-11-06T21:34:48.081Z,981.6
2022-11-06T21:36:49.222Z,981.7
2022-11-06T21:38:51.081Z,981.6
2022-11-06T21:40:52.395Z,981.7
2022-11-06T21:42:53.899Z,981.8
2022-11-06T21:44:54.892Z,981.7
2022-11-06T21:46:56.816Z,981.8
2022-11-06T21:50:59.738Z,981.7
2022-11-06T21:53:01.294Z,981.7
2022-11-06T21:55:03.258Z,981.7
2022-11-06T21:57:04.612Z,981.7
2022-11-06T21:59:05.873Z,981.7
2022-11-06T22:01:07.323Z,981.7
2022-11-06T22:03:08.529Z,981.8
2022-11-06T22:05:09.931Z,981.9
2022-11-06T22:07:11.069Z,981.8
2022-11-06T22:09:12.465Z,981.8
2022-11-06T22:11:14.085Z,981.7
2022-11-06T22:13:15.941Z,981.7
2022-11-06T22:15:16.717Z,981.7
2022-11-06T22:17:18.377Z,981.8
2022-11-06T22:19:20.244Z,981.8
2022-11-06T22:21:21.521Z,981.9
2022-11-06T22:23:23.275Z,981.9
2022-11-06T22:25:24.945Z,982
2022-11-06T22:27:26.006Z,982
2022-11-06T22:29:27.795Z,981.9
2022-11-06T22:31:29.849Z,982.2
2022-11-06T22:33:30.909Z,982.2
2022-11-06T22:35:32.226Z,982.1
2022-11-06T22:37:33.376Z,982
2022-11-06T22:39:34.675Z,982
2022-11-06T22:41:35.702Z,981.9
2022-11-06T22:43:36.784Z,982
2022-11-06T22:45:38.701Z,981.9
2022-11-06T22:49:41.357Z,981.8
2022-11-06T22:51:42.679Z,981.8
2022-11-06T22:53:43.897Z,981.9
2022-11-06T22:55:45.391Z,981.9
2022-11-06T22:57:47.044Z,981.9
2022-11-06T22:59:48.098Z,982
2022-11-06T23:01:49.780Z,981.9
2022-11-06T23:03:51.238Z,981.9
2022-11-06T23:05:52.980Z,982
2022-11-06T23:07:54.259Z,982.1
2022-11-06T23:09:55.675Z,982
2022-11-06T23:11:57.573Z,982.1
2022-11-06T23:13:59.871Z,982.2
2022-11-06T23:16:00.638Z,982.2
2022-11-06T23:18:02.484Z,982.3
2022-11-06T23:20:03.763Z,982.2
2022-11-06T23:22:04.926Z,982.3
2022-11-06T23:24:06.585Z,982.3
2022-11-06T23:26:08.168Z,982.4
2022-11-06T23:28:09.336Z,982.3
2022-11-06T23:30:10.643Z,982.2
2022-11-06T23:32:12.367Z,982.3
2022-11-06T23:34:13.525Z,982.3
2022-11-06T23:36:15.491Z,982.2
2022-11-06T23:38:16.763Z,982.4
2022-11-06T23:40:18.594Z,982.2
2022-11-06T23:42:20.228Z,982.3
2022-11-06T23:44:22.006Z,982.4
2022-11-06T23:46:23.745Z,982.3
2022-11-06T23:48:25.618Z,982.3
2022-11-06T23:50:26.983Z,982.3
2022-11-06T23:52:27.967Z,982.3
2022-11-06T23:54:29.620Z,982.3
2022-11-06T23:58:32.201Z,982.4
